Tweets

Valley Met

METAR
EGOV 250950Z AUTO 21016KT 6000 -SHRA FEW003/// BKN036/// 10/10 Q1002
EGOV 250850Z AUTO 22013KT 7000 BR FEW004/// SCT034/// BKN048/// 10/09 Q1002 RERA

Gallery

Expand all | Collapse all


Chris’s Daily Photo

Subscribe to:

FourFax Stats

  • Total Stats
    • 312 Posts
    • 158 Comments
    • 48 Comment Posters
    • 28 Links
    • 7 Post Categories
    • 4 Link Categories

Archives